sensor_id;sensor_type;location;lat;lon;timestamp;P1;durP1;ratioP1;P2;durP2;ratioP2
6723;SDS011;3399;52.530;13.304;2024-03-08T00:00:07;21.60;;;15.37;;
6723;SDS011;3399;52.530;13.304;2024-03-08T00:02:41;21.83;;;14.50;;
6723;SDS011;3399;52.530;13.304;2024-03-08T00:05:07;21.10;;;14.10;;
6723;SDS011;3399;52.530;13.304;2024-03-08T00:07:37;24.13;;;16.30;;
6723;SDS011;3399;52.530;13.304;2024-03-08T00:10:03;25.40;;;17.47;;
6723;SDS011;3399;52.530;13.304;2024-03-08T00:12:30;27.60;;;15.63;;
6723;SDS011;3399;52.530;13.304;2024-03-08T00:14:55;22.83;;;16.40;;
6723;SDS011;3399;52.530;13.304;2024-03-08T00:17:21;25.20;;;15.70;;
6723;SDS011;3399;52.530;13.304;2024-03-08T00:19:50;23.30;;;16.00;;
6723;SDS011;3399;52.530;13.304;2024-03-08T00:22:16;23.17;;;17.07;;
6723;SDS011;3399;52.530;13.304;2024-03-08T00:24:42;22.63;;;15.63;;
6723;SDS011;3399;52.530;13.304;2024-03-08T00:27:07;22.33;;;16.40;;
6723;SDS011;3399;52.530;13.304;2024-03-08T00:29:34;24.33;;;15.50;;
6723;SDS011;3399;52.530;13.304;2024-03-08T00:31:59;29.07;;;17.37;;
6723;SDS011;3399;52.530;13.304;2024-03-08T00:34:26;22.93;;;16.77;;
6723;SDS011;3399;52.530;13.304;2024-03-08T00:36:51;23.77;;;16.57;;
6723;SDS011;3399;52.530;13.304;2024-03-08T00:39:17;25.63;;;16.93;;
6723;SDS011;3399;52.530;13.304;2024-03-08T00:41:44;25.40;;;17.40;;
6723;SDS011;3399;52.530;13.304;2024-03-08T00:44:10;27.23;;;16.77;;
6723;SDS011;3399;52.530;13.304;2024-03-08T00:46:36;19.83;;;14.93;;
6723;SDS011;3399;52.530;13.304;2024-03-08T00:49:01;21.87;;;16.70;;
6723;SDS011;3399;52.530;13.304;2024-03-08T00:51:27;33.07;;;18.93;;
6723;SDS011;3399;52.530;13.304;2024-03-08T00:53:52;29.30;;;19.03;;
6723;SDS011;3399;52.530;13.304;2024-03-08T00:56:18;26.83;;;17.23;;
6723;SDS011;3399;52.530;13.304;2024-03-08T00:58:43;27.20;;;18.87;;
6723;SDS011;3399;52.530;13.304;2024-03-08T01:01:09;25.00;;;19.07;;
6723;SDS011;3399;52.530;13.304;2024-03-08T01:03:34;29.57;;;19.37;;
6723;SDS011;3399;52.530;13.304;2024-03-08T01:06:01;24.43;;;17.57;;
6723;SDS011;3399;52.530;13.304;2024-03-08T01:08:27;24.40;;;18.70;;
6723;SDS011;3399;52.530;13.304;2024-03-08T01:10:53;25.67;;;19.03;;
6723;SDS011;3399;52.530;13.304;2024-03-08T01:13:19;24.40;;;17.13;;
6723;SDS011;3399;52.530;13.304;2024-03-08T01:15:45;22.43;;;17.93;;
6723;SDS011;3399;52.530;13.304;2024-03-08T01:18:10;23.30;;;15.73;;
6723;SDS011;3399;52.530;13.304;2024-03-08T01:20:36;26.80;;;16.90;;
6723;SDS011;3399;52.530;13.304;2024-03-08T01:23:02;26.20;;;18.20;;
6723;SDS011;3399;52.530;13.304;2024-03-08T01:25:28;22.67;;;16.67;;
6723;SDS011;3399;52.530;13.304;2024-03-08T01:27:54;22.17;;;16.60;;
6723;SDS011;3399;52.530;13.304;2024-03-08T01:30:19;23.13;;;17.60;;
6723;SDS011;3399;52.530;13.304;2024-03-08T01:32:45;21.77;;;16.63;;
6723;SDS011;3399;52.530;13.304;2024-03-08T01:35:10;26.73;;;18.40;;
6723;SDS011;3399;52.530;13.304;2024-03-08T01:37:36;21.57;;;16.13;;
6723;SDS011;3399;52.530;13.304;2024-03-08T01:40:02;24.77;;;17.67;;
6723;SDS011;3399;52.530;13.304;2024-03-08T01:42:28;26.50;;;18.97;;
6723;SDS011;3399;52.530;13.304;2024-03-08T01:44:54;26.47;;;18.17;;
6723;SDS011;3399;52.530;13.304;2024-03-08T01:47:20;28.47;;;17.43;;
6723;SDS011;3399;52.530;13.304;2024-03-08T01:49:49;24.60;;;17.47;;
6723;SDS011;3399;52.530;13.304;2024-03-08T01:52:16;33.00;;;19.43;;
6723;SDS011;3399;52.530;13.304;2024-03-08T01:54:43;24.37;;;17.30;;
6723;SDS011;3399;52.530;13.304;2024-03-08T01:57:10;30.53;;;18.30;;
6723;SDS011;3399;52.530;13.304;2024-03-08T01:59:36;25.77;;;17.50;;
6723;SDS011;3399;52.530;13.304;2024-03-08T02:02:02;33.37;;;19.77;;
6723;SDS011;3399;52.530;13.304;2024-03-08T02:04:29;25.50;;;18.40;;
6723;SDS011;3399;52.530;13.304;2024-03-08T02:06:58;28.97;;;18.57;;
6723;SDS011;3399;52.530;13.304;2024-03-08T02:09:24;27.33;;;19.23;;
6723;SDS011;3399;52.530;13.304;2024-03-08T02:11:50;26.93;;;17.73;;
6723;SDS011;3399;52.530;13.304;2024-03-08T02:14:16;23.67;;;17.80;;
6723;SDS011;3399;52.530;13.304;2024-03-08T02:16:43;27.10;;;17.57;;
6723;SDS011;3399;52.530;13.304;2024-03-08T02:19:09;25.77;;;17.93;;
6723;SDS011;3399;52.530;13.304;2024-03-08T02:21:34;26.60;;;18.43;;
6723;SDS011;3399;52.530;13.304;2024-03-08T02:24:01;25.30;;;17.77;;
6723;SDS011;3399;52.530;13.304;2024-03-08T02:26:27;26.07;;;17.67;;
6723;SDS011;3399;52.530;13.304;2024-03-08T02:28:53;25.97;;;18.17;;
6723;SDS011;3399;52.530;13.304;2024-03-08T02:31:19;27.57;;;17.80;;
6723;SDS011;3399;52.530;13.304;2024-03-08T02:33:44;28.13;;;17.00;;
6723;SDS011;3399;52.530;13.304;2024-03-08T02:36:12;28.53;;;18.27;;
6723;SDS011;3399;52.530;13.304;2024-03-08T02:38:38;23.77;;;16.73;;
6723;SDS011;3399;52.530;13.304;2024-03-08T02:41:05;26.60;;;17.63;;
6723;SDS011;3399;52.530;13.304;2024-03-08T02:43:31;22.90;;;17.03;;
6723;SDS011;3399;52.530;13.304;2024-03-08T02:45:57;28.83;;;18.13;;
6723;SDS011;3399;52.530;13.304;2024-03-08T02:48:22;25.10;;;17.63;;
6723;SDS011;3399;52.530;13.304;2024-03-08T02:50:47;25.90;;;17.30;;
6723;SDS011;3399;52.530;13.304;2024-03-08T02:53:13;24.20;;;17.53;;
6723;SDS011;3399;52.530;13.304;2024-03-08T02:55:39;23.83;;;16.73;;
6723;SDS011;3399;52.530;13.304;2024-03-08T02:58:06;25.47;;;17.57;;
6723;SDS011;3399;52.530;13.304;2024-03-08T03:00:34;19.63;;;14.97;;
6723;SDS011;3399;52.530;13.304;2024-03-08T03:03:00;23.73;;;15.13;;
6723;SDS011;3399;52.530;13.304;2024-03-08T03:05:27;22.93;;;16.33;;
6723;SDS011;3399;52.530;13.304;2024-03-08T03:07:54;22.30;;;16.03;;
6723;SDS011;3399;52.530;13.304;2024-03-08T03:10:20;24.33;;;16.50;;
6723;SDS011;3399;52.530;13.304;2024-03-08T03:12:46;24.27;;;16.13;;
6723;SDS011;3399;52.530;13.304;2024-03-08T03:15:13;23.63;;;15.60;;
6723;SDS011;3399;52.530;13.304;2024-03-08T03:17:40;24.03;;;16.77;;
6723;SDS011;3399;52.530;13.304;2024-03-08T03:20:08;25.03;;;15.90;;
6723;SDS011;3399;52.530;13.304;2024-03-08T03:22:35;23.70;;;16.77;;
6723;SDS011;3399;52.530;13.304;2024-03-08T03:25:02;23.33;;;16.00;;
6723;SDS011;3399;52.530;13.304;2024-03-08T03:27:29;23.97;;;15.00;;
6723;SDS011;3399;52.530;13.304;2024-03-08T03:29:55;25.03;;;18.27;;
6723;SDS011;3399;52.530;13.304;2024-03-08T03:32:22;24.70;;;15.73;;
6723;SDS011;3399;52.530;13.304;2024-03-08T03:34:48;25.23;;;17.80;;
6723;SDS011;3399;52.530;13.304;2024-03-08T03:37:17;26.23;;;16.40;;
6723;SDS011;3399;52.530;13.304;2024-03-08T03:39:46;26.73;;;17.47;;
6723;SDS011;3399;52.530;13.304;2024-03-08T03:42:17;24.50;;;16.67;;
6723;SDS011;3399;52.530;13.304;2024-03-08T03:44:46;26.17;;;17.70;;
6723;SDS011;3399;52.530;13.304;2024-03-08T03:47:12;23.37;;;16.00;;
6723;SDS011;3399;52.530;13.304;2024-03-08T03:49:39;24.00;;;17.67;;
6723;SDS011;3399;52.530;13.304;2024-03-08T03:52:08;25.27;;;16.57;;
6723;SDS011;3399;52.530;13.304;2024-03-08T03:54:34;28.17;;;17.47;;
6723;SDS011;3399;52.530;13.304;2024-03-08T03:56:59;28.03;;;17.37;;
6723;SDS011;3399;52.530;13.304;2024-03-08T03:59:25;27.33;;;18.23;;
6723;SDS011;3399;52.530;13.304;2024-03-08T04:01:52;28.53;;;17.73;;
6723;SDS011;3399;52.530;13.304;2024-03-08T04:04:18;27.20;;;17.63;;
6723;SDS011;3399;52.530;13.304;2024-03-08T04:06:43;22.00;;;15.83;;
6723;SDS011;3399;52.530;13.304;2024-03-08T04:09:09;27.20;;;17.70;;
6723;SDS011;3399;52.530;13.304;2024-03-08T04:11:36;26.33;;;16.70;;
6723;SDS011;3399;52.530;13.304;2024-03-08T04:14:01;24.30;;;16.23;;
6723;SDS011;3399;52.530;13.304;2024-03-08T04:16:27;26.50;;;17.57;;
6723;SDS011;3399;52.530;13.304;2024-03-08T04:18:52;24.47;;;16.97;;
6723;SDS011;3399;52.530;13.304;2024-03-08T04:21:18;26.77;;;16.57;;
6723;SDS011;3399;52.530;13.304;2024-03-08T04:23:44;24.70;;;16.17;;
6723;SDS011;3399;52.530;13.304;2024-03-08T04:26:10;21.63;;;15.90;;
6723;SDS011;3399;52.530;13.304;2024-03-08T04:28:35;27.00;;;17.60;;
6723;SDS011;3399;52.530;13.304;2024-03-08T04:31:02;21.03;;;15.07;;
6723;SDS011;3399;52.530;13.304;2024-03-08T04:33:31;28.37;;;17.17;;
6723;SDS011;3399;52.530;13.304;2024-03-08T04:35:57;26.03;;;18.00;;
6723;SDS011;3399;52.530;13.304;2024-03-08T04:38:23;24.53;;;16.43;;
6723;SDS011;3399;52.530;13.304;2024-03-08T04:40:49;26.63;;;17.73;;
6723;SDS011;3399;52.530;13.304;2024-03-08T04:43:15;25.83;;;17.63;;
6723;SDS011;3399;52.530;13.304;2024-03-08T04:45:43;23.77;;;17.17;;
6723;SDS011;3399;52.530;13.304;2024-03-08T04:48:09;24.27;;;17.60;;
6723;SDS011;3399;52.530;13.304;2024-03-08T04:50:35;24.97;;;17.80;;
6723;SDS011;3399;52.530;13.304;2024-03-08T04:53:00;24.33;;;17.13;;
6723;SDS011;3399;52.530;13.304;2024-03-08T04:55:26;32.80;;;18.80;;
6723;SDS011;3399;52.530;13.304;2024-03-08T04:57:51;24.83;;;16.77;;
6723;SDS011;3399;52.530;13.304;2024-03-08T05:00:18;27.23;;;17.93;;
6723;SDS011;3399;52.530;13.304;2024-03-08T05:02:44;27.07;;;18.30;;
6723;SDS011;3399;52.530;13.304;2024-03-08T05:05:09;28.57;;;16.40;;
6723;SDS011;3399;52.530;13.304;2024-03-08T05:07:38;23.63;;;16.77;;
6723;SDS011;3399;52.530;13.304;2024-03-08T05:10:04;28.07;;;16.83;;
6723;SDS011;3399;52.530;13.304;2024-03-08T05:12:31;25.00;;;17.10;;
6723;SDS011;3399;52.530;13.304;2024-03-08T05:14:57;26.20;;;17.43;;
6723;SDS011;3399;52.530;13.304;2024-03-08T05:17:23;28.90;;;17.57;;
6723;SDS011;3399;52.530;13.304;2024-03-08T05:19:49;23.87;;;17.53;;
6723;SDS011;3399;52.530;13.304;2024-03-08T05:22:15;23.27;;;17.13;;
6723;SDS011;3399;52.530;13.304;2024-03-08T05:24:40;29.40;;;19.10;;
6723;SDS011;3399;52.530;13.304;2024-03-08T05:27:06;31.37;;;18.07;;
6723;SDS011;3399;52.530;13.304;2024-03-08T05:29:31;27.43;;;18.97;;
6723;SDS011;3399;52.530;13.304;2024-03-08T05:31:58;26.87;;;19.13;;
6723;SDS011;3399;52.530;13.304;2024-03-08T05:34:24;26.83;;;18.63;;
6723;SDS011;3399;52.530;13.304;2024-03-08T05:36:51;27.43;;;18.47;;
6723;SDS011;3399;52.530;13.304;2024-03-08T05:39:16;30.63;;;19.87;;
6723;SDS011;3399;52.530;13.304;2024-03-08T05:41:43;25.87;;;16.93;;
6723;SDS011;3399;52.530;13.304;2024-03-08T05:44:09;31.37;;;18.80;;
6723;SDS011;3399;52.530;13.304;2024-03-08T05:46:36;30.33;;;19.80;;
6723;SDS011;3399;52.530;13.304;2024-03-08T05:49:05;29.67;;;19.90;;
6723;SDS011;3399;52.530;13.304;2024-03-08T05:51:36;30.80;;;18.27;;
6723;SDS011;3399;52.530;13.304;2024-03-08T05:54:02;29.90;;;18.83;;
6723;SDS011;3399;52.530;13.304;2024-03-08T05:56:30;28.83;;;18.73;;
6723;SDS011;3399;52.530;13.304;2024-03-08T05:58:56;31.17;;;18.83;;
6723;SDS011;3399;52.530;13.304;2024-03-08T06:01:23;30.57;;;19.80;;
6723;SDS011;3399;52.530;13.304;2024-03-08T06:03:49;31.67;;;20.00;;
6723;SDS011;3399;52.530;13.304;2024-03-08T06:06:14;28.20;;;19.93;;
6723;SDS011;3399;52.530;13.304;2024-03-08T06:08:40;28.87;;;18.73;;
6723;SDS011;3399;52.530;13.304;2024-03-08T06:11:08;33.63;;;19.37;;
6723;SDS011;3399;52.530;13.304;2024-03-08T06:13:34;29.00;;;19.13;;
6723;SDS011;3399;52.530;13.304;2024-03-08T06:16:00;27.73;;;18.27;;
6723;SDS011;3399;52.530;13.304;2024-03-08T06:18:26;31.13;;;18.73;;
6723;SDS011;3399;52.530;13.304;2024-03-08T06:20:51;28.10;;;18.33;;
6723;SDS011;3399;52.530;13.304;2024-03-08T06:23:17;26.73;;;18.77;;
6723;SDS011;3399;52.530;13.304;2024-03-08T06:25:46;31.70;;;19.93;;
6723;SDS011;3399;52.530;13.304;2024-03-08T06:28:11;28.77;;;18.47;;
6723;SDS011;3399;52.530;13.304;2024-03-08T06:30:37;33.23;;;21.30;;
6723;SDS011;3399;52.530;13.304;2024-03-08T06:33:02;25.97;;;18.53;;
6723;SDS011;3399;52.530;13.304;2024-03-08T06:35:28;29.27;;;20.97;;
6723;SDS011;3399;52.530;13.304;2024-03-08T06:37:56;34.97;;;21.53;;
6723;SDS011;3399;52.530;13.304;2024-03-08T06:40:23;30.10;;;20.57;;
6723;SDS011;3399;52.530;13.304;2024-03-08T06:42:48;26.60;;;20.23;;
6723;SDS011;3399;52.530;13.304;2024-03-08T06:45:14;34.57;;;20.10;;
6723;SDS011;3399;52.530;13.304;2024-03-08T06:47:44;26.63;;;17.93;;
6723;SDS011;3399;52.530;13.304;2024-03-08T06:50:10;28.07;;;19.57;;
6723;SDS011;3399;52.530;13.304;2024-03-08T06:52:36;30.67;;;20.57;;
6723;SDS011;3399;52.530;13.304;2024-03-08T06:55:02;29.17;;;20.27;;
6723;SDS011;3399;52.530;13.304;2024-03-08T06:57:30;28.77;;;19.17;;
6723;SDS011;3399;52.530;13.304;2024-03-08T06:59:56;31.53;;;19.07;;
6723;SDS011;3399;52.530;13.304;2024-03-08T07:02:22;29.90;;;19.10;;
6723;SDS011;3399;52.530;13.304;2024-03-08T07:04:49;30.87;;;19.87;;
6723;SDS011;3399;52.530;13.304;2024-03-08T07:07:15;30.33;;;19.47;;
6723;SDS011;3399;52.530;13.304;2024-03-08T07:09:44;29.87;;;18.90;;
6723;SDS011;3399;52.530;13.304;2024-03-08T07:12:10;27.80;;;18.67;;
6723;SDS011;3399;52.530;13.304;2024-03-08T07:14:38;32.57;;;19.97;;
6723;SDS011;3399;52.530;13.304;2024-03-08T07:17:05;27.27;;;18.20;;
6723;SDS011;3399;52.530;13.304;2024-03-08T07:19:34;34.70;;;19.03;;
6723;SDS011;3399;52.530;13.304;2024-03-08T07:21:59;35.53;;;21.10;;
6723;SDS011;3399;52.530;13.304;2024-03-08T07:24:25;30.70;;;19.90;;
6723;SDS011;3399;52.530;13.304;2024-03-08T07:27:13;27.43;;;18.67;;
6723;SDS011;3399;52.530;13.304;2024-03-08T07:29:38;30.17;;;20.13;;
6723;SDS011;3399;52.530;13.304;2024-03-08T07:32:04;28.67;;;20.07;;
6723;SDS011;3399;52.530;13.304;2024-03-08T07:34:48;29.50;;;19.90;;
6723;SDS011;3399;52.530;13.304;2024-03-08T07:37:15;25.47;;;18.63;;
6723;SDS011;3399;52.530;13.304;2024-03-08T07:39:41;24.57;;;16.53;;
6723;SDS011;3399;52.530;13.304;2024-03-08T07:42:07;24.47;;;16.90;;
6723;SDS011;3399;52.530;13.304;2024-03-08T07:44:32;26.57;;;16.90;;
6723;SDS011;3399;52.530;13.304;2024-03-08T07:46:58;29.67;;;17.80;;
6723;SDS011;3399;52.530;13.304;2024-03-08T07:49:24;29.60;;;17.87;;
6723;SDS011;3399;52.530;13.304;2024-03-08T07:51:50;32.17;;;17.63;;
6723;SDS011;3399;52.530;13.304;2024-03-08T07:54:16;23.27;;;16.37;;
6723;SDS011;3399;52.530;13.304;2024-03-08T07:56:42;27.53;;;17.97;;
6723;SDS011;3399;52.530;13.304;2024-03-08T07:59:08;24.17;;;16.57;;
6723;SDS011;3399;52.530;13.304;2024-03-08T08:01:33;24.50;;;17.23;;
6723;SDS011;3399;52.530;13.304;2024-03-08T08:03:59;29.47;;;18.70;;
6723;SDS011;3399;52.530;13.304;2024-03-08T08:06:26;27.50;;;16.80;;
6723;SDS011;3399;52.530;13.304;2024-03-08T08:08:52;28.53;;;16.80;;
6723;SDS011;3399;52.530;13.304;2024-03-08T08:11:17;28.10;;;16.93;;
6723;SDS011;3399;52.530;13.304;2024-03-08T08:13:43;31.30;;;17.53;;
6723;SDS011;3399;52.530;13.304;2024-03-08T08:16:08;26.97;;;19.63;;
6723;SDS011;3399;52.530;13.304;2024-03-08T08:18:35;24.93;;;18.00;;
6723;SDS011;3399;52.530;13.304;2024-03-08T08:21:02;30.67;;;20.20;;
6723;SDS011;3399;52.530;13.304;2024-03-08T08:23:28;29.40;;;20.23;;
6723;SDS011;3399;52.530;13.304;2024-03-08T08:25:54;31.70;;;22.80;;
6723;SDS011;3399;52.530;13.304;2024-03-08T08:28:20;34.97;;;22.43;;
6723;SDS011;3399;52.530;13.304;2024-03-08T08:30:46;36.87;;;22.57;;
6723;SDS011;3399;52.530;13.304;2024-03-08T08:33:11;27.50;;;17.13;;
6723;SDS011;3399;52.530;13.304;2024-03-08T08:35:37;35.40;;;22.27;;
6723;SDS011;3399;52.530;13.304;2024-03-08T08:38:03;27.17;;;19.70;;
6723;SDS011;3399;52.530;13.304;2024-03-08T08:40:29;26.90;;;18.77;;
6723;SDS011;3399;52.530;13.304;2024-03-08T08:42:56;22.93;;;16.63;;
6723;SDS011;3399;52.530;13.304;2024-03-08T08:45:25;25.17;;;16.63;;
6723;SDS011;3399;52.530;13.304;2024-03-08T08:47:52;22.00;;;14.27;;
6723;SDS011;3399;52.530;13.304;2024-03-08T08:50:17;16.77;;;11.33;;
6723;SDS011;3399;52.530;13.304;2024-03-08T08:52:49;22.17;;;15.17;;
6723;SDS011;3399;52.530;13.304;2024-03-08T08:55:15;26.53;;;14.90;;
6723;SDS011;3399;52.530;13.304;2024-03-08T08:57:40;19.70;;;15.33;;
6723;SDS011;3399;52.530;13.304;2024-03-08T09:00:06;28.00;;;15.63;;
6723;SDS011;3399;52.530;13.304;2024-03-08T09:02:35;22.93;;;16.40;;
6723;SDS011;3399;52.530;13.304;2024-03-08T09:05:02;27.23;;;16.60;;
6723;SDS011;3399;52.530;13.304;2024-03-08T09:07:29;22.70;;;16.20;;
6723;SDS011;3399;52.530;13.304;2024-03-08T09:09:54;24.83;;;15.70;;
6723;SDS011;3399;52.530;13.304;2024-03-08T09:12:23;26.27;;;17.23;;
6723;SDS011;3399;52.530;13.304;2024-03-08T09:14:49;28.53;;;16.83;;
6723;SDS011;3399;52.530;13.304;2024-03-08T09:17:15;22.23;;;15.70;;
6723;SDS011;3399;52.530;13.304;2024-03-08T09:19:46;28.93;;;17.00;;
6723;SDS011;3399;52.530;13.304;2024-03-08T09:22:12;31.60;;;17.13;;
6723;SDS011;3399;52.530;13.304;2024-03-08T09:24:38;19.13;;;13.53;;
6723;SDS011;3399;52.530;13.304;2024-03-08T09:27:04;20.77;;;15.20;;
6723;SDS011;3399;52.530;13.304;2024-03-08T09:29:30;29.30;;;19.50;;
6723;SDS011;3399;52.530;13.304;2024-03-08T09:31:55;25.83;;;17.70;;
6723;SDS011;3399;52.530;13.304;2024-03-08T09:34:21;27.73;;;17.37;;
6723;SDS011;3399;52.530;13.304;2024-03-08T09:36:46;28.93;;;17.43;;
6723;SDS011;3399;52.530;13.304;2024-03-08T09:39:12;26.13;;;18.33;;
6723;SDS011;3399;52.530;13.304;2024-03-08T09:41:42;23.07;;;16.53;;
6723;SDS011;3399;52.530;13.304;2024-03-08T09:44:09;20.57;;;14.40;;
6723;SDS011;3399;52.530;13.304;2024-03-08T09:46:34;16.47;;;12.53;;
6723;SDS011;3399;52.530;13.304;2024-03-08T09:49:00;21.93;;;13.63;;
6723;SDS011;3399;52.530;13.304;2024-03-08T09:51:29;22.17;;;15.30;;
6723;SDS011;3399;52.530;13.304;2024-03-08T09:53:58;25.47;;;15.77;;
6723;SDS011;3399;52.530;13.304;2024-03-08T09:56:23;22.77;;;16.60;;
6723;SDS011;3399;52.530;13.304;2024-03-08T09:58:50;29.83;;;17.13;;
6723;SDS011;3399;52.530;13.304;2024-03-08T10:01:31;28.87;;;17.80;;
6723;SDS011;3399;52.530;13.304;2024-03-08T10:03:56;24.17;;;15.77;;
6723;SDS011;3399;52.530;13.304;2024-03-08T10:06:23;27.40;;;17.70;;
6723;SDS011;3399;52.530;13.304;2024-03-08T10:08:49;18.47;;;11.97;;
6723;SDS011;3399;52.530;13.304;2024-03-08T10:11:17;22.07;;;15.73;;
6723;SDS011;3399;52.530;13.304;2024-03-08T10:13:42;27.70;;;16.37;;
6723;SDS011;3399;52.530;13.304;2024-03-08T10:16:11;22.80;;;14.43;;
6723;SDS011;3399;52.530;13.304;2024-03-08T10:18:37;24.43;;;15.87;;
6723;SDS011;3399;52.530;13.304;2024-03-08T10:21:03;22.80;;;16.83;;
6723;SDS011;3399;52.530;13.304;2024-03-08T10:23:30;23.67;;;16.97;;
6723;SDS011;3399;52.530;13.304;2024-03-08T10:25:59;25.37;;;16.53;;
6723;SDS011;3399;52.530;13.304;2024-03-08T10:28:34;22.17;;;15.90;;
6723;SDS011;3399;52.530;13.304;2024-03-08T10:31:00;21.83;;;13.53;;
6723;SDS011;3399;52.530;13.304;2024-03-08T10:33:25;21.13;;;14.93;;
6723;SDS011;3399;52.530;13.304;2024-03-08T10:35:51;18.57;;;13.30;;
6723;SDS011;3399;52.530;13.304;2024-03-08T10:38:17;24.73;;;15.00;;
6723;SDS011;3399;52.530;13.304;2024-03-08T10:40:47;23.97;;;15.67;;
6723;SDS011;3399;52.530;13.304;2024-03-08T10:43:18;20.90;;;13.33;;
6723;SDS011;3399;52.530;13.304;2024-03-08T10:45:59;24.70;;;15.93;;
6723;SDS011;3399;52.530;13.304;2024-03-08T10:48:41;17.77;;;12.47;;
6723;SDS011;3399;52.530;13.304;2024-03-08T10:51:09;22.27;;;15.33;;
6723;SDS011;3399;52.530;13.304;2024-03-08T10:53:37;23.50;;;14.50;;
6723;SDS011;3399;52.530;13.304;2024-03-08T10:56:06;21.20;;;14.40;;
6723;SDS011;3399;52.530;13.304;2024-03-08T10:58:32;20.80;;;14.90;;
6723;SDS011;3399;52.530;13.304;2024-03-08T11:01:00;25.50;;;15.40;;
6723;SDS011;3399;52.530;13.304;2024-03-08T11:06:07;18.37;;;12.83;;
6723;SDS011;3399;52.530;13.304;2024-03-08T11:08:35;20.30;;;12.57;;
6723;SDS011;3399;52.530;13.304;2024-03-08T11:11:01;16.77;;;13.17;;
6723;SDS011;3399;52.530;13.304;2024-03-08T11:13:40;16.70;;;13.00;;
6723;SDS011;3399;52.530;13.304;2024-03-08T11:16:11;16.60;;;13.03;;
6723;SDS011;3399;52.530;13.304;2024-03-08T11:19:00;19.23;;;13.20;;
6723;SDS011;3399;52.530;13.304;2024-03-08T11:21:30;21.03;;;13.80;;
6723;SDS011;3399;52.530;13.304;2024-03-08T11:24:02;17.13;;;12.47;;
6723;SDS011;3399;52.530;13.304;2024-03-08T11:26:31;19.80;;;13.37;;
6723;SDS011;3399;52.530;13.304;2024-03-08T11:32:14;19.30;;;12.50;;
6723;SDS011;3399;52.530;13.304;2024-03-08T11:34:42;19.10;;;13.30;;
6723;SDS011;3399;52.530;13.304;2024-03-08T11:37:21;19.13;;;12.73;;
6723;SDS011;3399;52.530;13.304;2024-03-08T11:39:51;22.23;;;13.47;;
6723;SDS011;3399;52.530;13.304;2024-03-08T11:42:18;18.27;;;12.20;;
6723;SDS011;3399;52.530;13.304;2024-03-08T11:44:48;17.57;;;11.97;;
6723;SDS011;3399;52.530;13.304;2024-03-08T11:47:15;15.87;;;11.47;;
6723;SDS011;3399;52.530;13.304;2024-03-08T11:49:41;16.63;;;12.17;;
6723;SDS011;3399;52.530;13.304;2024-03-08T11:52:12;14.37;;;10.43;;
6723;SDS011;3399;52.530;13.304;2024-03-08T11:54:38;20.97;;;13.80;;
6723;SDS011;3399;52.530;13.304;2024-03-08T11:57:04;15.87;;;12.50;;
6723;SDS011;3399;52.530;13.304;2024-03-08T11:59:30;16.10;;;11.23;;
6723;SDS011;3399;52.530;13.304;2024-03-08T12:02:05;16.30;;;12.93;;
6723;SDS011;3399;52.530;13.304;2024-03-08T12:04:31;15.67;;;10.77;;
6723;SDS011;3399;52.530;13.304;2024-03-08T12:07:00;19.40;;;12.57;;
6723;SDS011;3399;52.530;13.304;2024-03-08T12:09:34;18.87;;;11.57;;
6723;SDS011;3399;52.530;13.304;2024-03-08T12:12:01;17.47;;;13.40;;
6723;SDS011;3399;52.530;13.304;2024-03-08T12:14:28;21.37;;;12.67;;
6723;SDS011;3399;52.530;13.304;2024-03-08T12:16:53;16.43;;;11.57;;
6723;SDS011;3399;52.530;13.304;2024-03-08T12:19:19;16.30;;;12.10;;
6723;SDS011;3399;52.530;13.304;2024-03-08T12:21:45;18.83;;;12.53;;
6723;SDS011;3399;52.530;13.304;2024-03-08T12:24:14;16.93;;;12.57;;
6723;SDS011;3399;52.530;13.304;2024-03-08T12:26:44;21.37;;;13.33;;
6723;SDS011;3399;52.530;13.304;2024-03-08T12:31:52;23.80;;;14.90;;
6723;SDS011;3399;52.530;13.304;2024-03-08T12:34:18;17.77;;;12.40;;
6723;SDS011;3399;52.530;13.304;2024-03-08T12:36:48;18.03;;;13.00;;
6723;SDS011;3399;52.530;13.304;2024-03-08T12:39:17;18.10;;;13.73;;
6723;SDS011;3399;52.530;13.304;2024-03-08T12:41:47;20.07;;;12.70;;
6723;SDS011;3399;52.530;13.304;2024-03-08T12:44:12;17.73;;;14.03;;
6723;SDS011;3399;52.530;13.304;2024-03-08T12:46:38;20.27;;;14.10;;
6723;SDS011;3399;52.530;13.304;2024-03-08T12:49:06;18.63;;;14.07;;
6723;SDS011;3399;52.530;13.304;2024-03-08T12:51:32;16.30;;;13.13;;
6723;SDS011;3399;52.530;13.304;2024-03-08T12:53:58;11.30;;;9.77;;
6723;SDS011;3399;52.530;13.304;2024-03-08T12:56:30;16.43;;;13.70;;
6723;SDS011;3399;52.530;13.304;2024-03-08T12:58:58;21.57;;;14.17;;
6723;SDS011;3399;52.530;13.304;2024-03-08T13:01:24;16.10;;;12.67;;
6723;SDS011;3399;52.530;13.304;2024-03-08T13:03:49;17.73;;;12.90;;
6723;SDS011;3399;52.530;13.304;2024-03-08T13:06:15;19.40;;;13.63;;
6723;SDS011;3399;52.530;13.304;2024-03-08T13:08:41;16.43;;;13.33;;
6723;SDS011;3399;52.530;13.304;2024-03-08T13:11:07;16.80;;;13.47;;
6723;SDS011;3399;52.530;13.304;2024-03-08T13:13:33;16.57;;;13.07;;
6723;SDS011;3399;52.530;13.304;2024-03-08T13:16:01;15.50;;;10.63;;
6723;SDS011;3399;52.530;13.304;2024-03-08T13:18:27;16.30;;;12.37;;
6723;SDS011;3399;52.530;13.304;2024-03-08T13:20:53;22.90;;;12.40;;
6723;SDS011;3399;52.530;13.304;2024-03-08T13:23:19;18.00;;;13.60;;
6723;SDS011;3399;52.530;13.304;2024-03-08T13:25:45;16.30;;;12.03;;
6723;SDS011;3399;52.530;13.304;2024-03-08T13:28:12;17.60;;;12.83;;
6723;SDS011;3399;52.530;13.304;2024-03-08T13:30:38;16.37;;;12.93;;
6723;SDS011;3399;52.530;13.304;2024-03-08T13:33:04;13.93;;;11.77;;
6723;SDS011;3399;52.530;13.304;2024-03-08T13:35:30;19.03;;;12.47;;
6723;SDS011;3399;52.530;13.304;2024-03-08T13:37:55;15.67;;;12.07;;
6723;SDS011;3399;52.530;13.304;2024-03-08T13:40:21;20.37;;;12.00;;
6723;SDS011;3399;52.530;13.304;2024-03-08T13:42:50;16.67;;;12.50;;
6723;SDS011;3399;52.530;13.304;2024-03-08T13:45:16;17.63;;;12.63;;
6723;SDS011;3399;52.530;13.304;2024-03-08T13:47:48;15.37;;;12.17;;
6723;SDS011;3399;52.530;13.304;2024-03-08T13:50:18;15.60;;;11.87;;
6723;SDS011;3399;52.530;13.304;2024-03-08T13:52:47;16.87;;;11.87;;
6723;SDS011;3399;52.530;13.304;2024-03-08T13:55:16;17.10;;;10.93;;
6723;SDS011;3399;52.530;13.304;2024-03-08T13:57:42;17.50;;;12.63;;
6723;SDS011;3399;52.530;13.304;2024-03-08T14:00:10;18.73;;;13.17;;
6723;SDS011;3399;52.530;13.304;2024-03-08T14:02:36;15.23;;;12.23;;
6723;SDS011;3399;52.530;13.304;2024-03-08T14:05:02;15.73;;;12.40;;
6723;SDS011;3399;52.530;13.304;2024-03-08T14:07:28;15.97;;;11.27;;
6723;SDS011;3399;52.530;13.304;2024-03-08T14:09:54;18.90;;;13.67;;
6723;SDS011;3399;52.530;13.304;2024-03-08T14:12:20;16.20;;;12.47;;
6723;SDS011;3399;52.530;13.304;2024-03-08T14:14:45;16.23;;;11.80;;
6723;SDS011;3399;52.530;13.304;2024-03-08T14:17:11;13.87;;;11.10;;
6723;SDS011;3399;52.530;13.304;2024-03-08T14:19:41;14.27;;;11.33;;
6723;SDS011;3399;52.530;13.304;2024-03-08T14:22:07;13.53;;;10.87;;
6723;SDS011;3399;52.530;13.304;2024-03-08T14:24:35;13.17;;;10.63;;
6723;SDS011;3399;52.530;13.304;2024-03-08T14:27:01;11.37;;;9.80;;
6723;SDS011;3399;52.530;13.304;2024-03-08T14:29:28;16.03;;;11.70;;
6723;SDS011;3399;52.530;13.304;2024-03-08T14:31:55;17.23;;;13.00;;
6723;SDS011;3399;52.530;13.304;2024-03-08T14:34:27;12.10;;;9.47;;
6723;SDS011;3399;52.530;13.304;2024-03-08T14:36:54;16.17;;;11.10;;
6723;SDS011;3399;52.530;13.304;2024-03-08T14:39:20;18.77;;;11.00;;
6723;SDS011;3399;52.530;13.304;2024-03-08T14:41:50;16.33;;;10.87;;